Time;durP1;ratioP1;P1;durP2;ratioP2;P2;SDS_P1;SDS_P2;PMS_P1;PMS_P2;Temp;Humidity;BMP_temperature;BMP_pressure;BME280_temperature;BME280_humidity;BME280_pressure;Samples;Min_cycle;Max_cycle;Signal;HPM_P1;HPM_P2
2022/01/19 00:00:06;;;;;;;19.77;10.60;;;;;;;;;;5085727;28;20035;-68
2022/01/19 00:02:32;;;;;;;18.23;10.32;;;;;;;;;;5085776;28;20121;-68
2022/01/19 00:04:57;;;;;;;17.38;10.23;;;;;;;;;;5087672;28;20036;-68
2022/01/19 00:07:22;;;;;;;15.27;9.50;;;;;;;;;;5089599;28;20078;-68
2022/01/19 00:09:48;;;;;;;19.13;10.48;;;;;;;;;;5090141;28;20028;-68
2022/01/19 00:12:13;;;;;;;19.70;10.50;;;;;;;;;;5089431;28;20028;-68
2022/01/19 00:14:38;;;;;;;22.08;10.73;;;;;;;;;;5090869;28;20031;-68
2022/01/19 00:17:04;;;;;;;18.17;10.00;;;;;;;;;;5090989;28;20028;-68
2022/01/19 00:19:29;;;;;;;18.58;9.73;;;;;;;;;;5089744;28;20020;-68
2022/01/19 00:21:54;;;;;;;20.75;10.88;;;;;;;;;;5091051;28;20043;-68
2022/01/19 00:24:20;;;;;;;20.13;11.30;;;;;;;;;;5090806;28;20368;-68
2022/01/19 00:26:46;;;;;;;15.52;10.35;;;;;;;;;;5090983;28;20470;-67
2022/01/19 00:29:12;;;;;;;16.35;9.63;;;;;;;;;;5089179;28;20024;-67
2022/01/19 00:31:37;;;;;;;16.92;10.43;;;;;;;;;;5088674;28;20106;-68
2022/01/19 00:34:02;;;;;;;16.55;10.45;;;;;;;;;;5090397;28;20107;-68
2022/01/19 00:36:29;;;;;;;17.65;10.02;;;;;;;;;;5089651;28;20030;-68
2022/01/19 00:38:54;;;;;;;22.27;10.77;;;;;;;;;;5090394;28;20467;-68
2022/01/19 00:41:19;;;;;;;15.65;10.13;;;;;;;;;;5089491;28;20036;-68
2022/01/19 00:43:45;;;;;;;16.95;9.77;;;;;;;;;;5088628;28;20031;-68
2022/01/19 00:46:10;;;;;;;16.40;9.68;;;;;;;;;;5090817;28;20035;-68
2022/01/19 00:48:36;;;;;;;22.88;9.35;;;;;;;;;;5090549;28;20031;-67
2022/01/19 00:51:01;;;;;;;21.48;8.80;;;;;;;;;;5090494;28;20106;-68
2022/01/19 00:53:27;;;;;;;21.05;9.27;;;;;;;;;;5090156;28;20118;-68
2022/01/19 00:55:52;;;;;;;18.80;9.30;;;;;;;;;;5090521;28;20249;-68
2022/01/19 00:58:18;;;;;;;15.52;8.27;;;;;;;;;;5088594;28;20495;-67
2022/01/19 01:00:43;;;;;;;17.83;8.90;;;;;;;;;;5089467;28;20039;-68
2022/01/19 01:03:08;;;;;;;19.08;7.93;;;;;;;;;;5088984;28;20135;-67
2022/01/19 01:05:34;;;;;;;18.02;8.55;;;;;;;;;;5081100;28;20059;-69
2022/01/19 01:07:59;;;;;;;20.05;9.05;;;;;;;;;;5054815;28;20471;-69
2022/01/19 01:10:24;;;;;;;19.38;8.23;;;;;;;;;;5054249;28;20502;-69
2022/01/19 01:12:52;;;;;;;16.17;8.10;;;;;;;;;;5056731;28;20680;-69
2022/01/19 01:15:29;;;;;;;19.52;8.30;;;;;;;;;;5056697;28;20119;-68
2022/01/19 01:20:35;;;;;;;19.38;8.35;;;;;;;;;;5041042;28;20105;-69
2022/01/19 01:23:01;;;;;;;18.60;9.90;;;;;;;;;;5072466;28;20483;-69
2022/01/19 01:25:26;;;;;;;18.95;8.43;;;;;;;;;;5064673;28;20060;-69
2022/01/19 01:27:52;;;;;;;19.17;9.32;;;;;;;;;;5054938;28;20067;-69
2022/01/19 01:30:17;;;;;;;31.77;10.40;;;;;;;;;;5055549;28;20107;-69
2022/01/19 01:32:42;;;;;;;18.65;9.27;;;;;;;;;;5073587;28;20119;-69
2022/01/19 01:35:08;;;;;;;25.73;10.02;;;;;;;;;;5054867;28;20036;-68
2022/01/19 01:37:33;;;;;;;23.20;9.82;;;;;;;;;;5059785;28;20418;-69
2022/01/19 01:40:01;;;;;;;19.33;9.45;;;;;;;;;;5057201;28;20032;-69
2022/01/19 01:42:26;;;;;;;23.63;9.65;;;;;;;;;;5071272;28;20039;-69
2022/01/19 01:44:54;;;;;;;19.02;9.68;;;;;;;;;;5054489;28;20465;-69
2022/01/19 01:47:21;;;;;;;25.02;10.55;;;;;;;;;;5052931;28;20169;-69
2022/01/19 01:55:07;;;;;;;18.80;10.00;;;;;;;;;;5053321;28;20195;-69
2022/01/19 01:57:33;;;;;;;24.05;10.63;;;;;;;;;;5052483;28;20598;-69
2022/01/19 01:59:58;;;;;;;18.58;10.02;;;;;;;;;;5051897;28;20115;-69
2022/01/19 02:02:23;;;;;;;14.10;9.20;;;;;;;;;;5054774;28;20135;-69
2022/01/19 02:04:49;;;;;;;17.13;9.07;;;;;;;;;;5054992;28;20557;-69
2022/01/19 02:07:40;;;;;;;20.38;10.27;;;;;;;;;;5052933;28;20538;-69
2022/01/19 02:10:08;;;;;;;16.45;9.55;;;;;;;;;;5051919;28;20060;-68
2022/01/19 02:23:37;;;;;;;17.27;9.98;;;;;;;;;;5068736;28;20043;-67
2022/01/19 02:26:07;;;;;;;17.73;9.93;;;;;;;;;;5067464;28;20024;-68
2022/01/19 02:36:36;;;;;;;20.35;10.70;;;;;;;;;;5068457;28;20035;-68
2022/01/19 02:41:46;;;;;;;21.52;10.48;;;;;;;;;;5067034;28;20032;-67
2022/01/19 02:44:16;;;;;;;16.95;9.65;;;;;;;;;;5067003;28;20032;-68
2022/01/19 02:49:20;;;;;;;18.50;10.23;;;;;;;;;;5067997;28;20503;-67
2022/01/19 02:51:54;;;;;;;16.50;9.88;;;;;;;;;;5066828;28;20029;-68
2022/01/19 02:54:21;;;;;;;20.42;10.90;;;;;;;;;;5067046;28;20052;-67
2022/01/19 02:56:51;;;;;;;18.02;9.82;;;;;;;;;;5050470;28;20024;-67
2022/01/19 02:59:26;;;;;;;18.60;10.57;;;;;;;;;;5067634;28;20395;-68
2022/01/19 03:10:03;;;;;;;23.38;11.18;;;;;;;;;;5052715;28;20407;-67
2022/01/19 03:12:29;;;;;;;24.08;11.45;;;;;;;;;;5067772;28;20032;-67
2022/01/19 03:14:54;;;;;;;19.08;10.82;;;;;;;;;;5068175;28;20028;-67
2022/01/19 03:17:19;;;;;;;18.95;11.25;;;;;;;;;;5068106;28;20174;-68
2022/01/19 03:19:45;;;;;;;19.15;11.93;;;;;;;;;;5066025;28;20043;-68
2022/01/19 03:22:11;;;;;;;28.23;11.25;;;;;;;;;;5067960;28;20618;-67
2022/01/19 03:24:38;;;;;;;19.75;11.27;;;;;;;;;;5067980;28;20035;-68
2022/01/19 03:27:06;;;;;;;20.77;12.50;;;;;;;;;;5050502;28;20108;-68
2022/01/19 03:29:31;;;;;;;18.52;11.55;;;;;;;;;;5066085;28;20054;-68
2022/01/19 03:31:57;;;;;;;19.52;11.38;;;;;;;;;;5065428;28;20233;-68
2022/01/19 03:34:22;;;;;;;16.25;11.05;;;;;;;;;;5068048;28;20029;-67
2022/01/19 03:36:47;;;;;;;17.55;10.82;;;;;;;;;;5066578;28;20028;-67
2022/01/19 03:39:12;;;;;;;19.50;11.45;;;;;;;;;;5065816;28;20020;-67
2022/01/19 03:41:38;;;;;;;17.98;11.38;;;;;;;;;;5070228;28;20094;-68
2022/01/19 03:44:03;;;;;;;19.20;11.43;;;;;;;;;;5071555;28;20394;-68
2022/01/19 03:46:34;;;;;;;19.13;11.48;;;;;;;;;;5070629;28;20514;-68
2022/01/19 03:49:09;;;;;;;23.65;12.27;;;;;;;;;;5071385;28;20483;-67
2022/01/19 03:51:34;;;;;;;21.15;11.52;;;;;;;;;;5070359;28;20028;-67
2022/01/19 03:54:00;;;;;;;22.48;11.68;;;;;;;;;;5069987;28;20028;-67
2022/01/19 03:56:25;;;;;;;19.15;11.85;;;;;;;;;;5071700;28;20648;-67
2022/01/19 03:58:50;;;;;;;19.17;11.63;;;;;;;;;;5053594;28;20016;-67
2022/01/19 04:01:17;;;;;;;18.77;11.13;;;;;;;;;;5070143;28;20035;-68
2022/01/19 04:06:29;;;;;;;18.27;10.45;;;;;;;;;;5070810;28;20394;-68
2022/01/19 04:08:54;;;;;;;22.67;11.55;;;;;;;;;;5069750;28;20483;-68
2022/01/19 04:11:22;;;;;;;19.83;11.27;;;;;;;;;;5069957;28;20043;-67
2022/01/19 04:16:21;;;;;;;;;;;;;;;;;;5070570;28;20140;-68
2022/01/19 04:18:46;;;;;;;20.60;10.73;;;;;;;;;;5071281;28;19990;-68
2022/01/19 04:21:13;;;;;;;23.45;11.57;;;;;;;;;;5052359;28;20031;-68
2022/01/19 04:23:39;;;;;;;19.58;11.38;;;;;;;;;;5070137;28;20399;-68
2022/01/19 04:26:05;;;;;;;19.20;10.63;;;;;;;;;;5070788;28;20024;-68
2022/01/19 04:28:30;;;;;;;23.30;11.45;;;;;;;;;;5069557;28;20025;-68
2022/01/19 04:30:55;;;;;;;20.08;11.02;;;;;;;;;;5069504;28;20024;-68
2022/01/19 04:33:24;;;;;;;23.13;12.02;;;;;;;;;;5069934;28;20032;-67
2022/01/19 04:35:50;;;;;;;22.17;11.48;;;;;;;;;;5070827;28;20016;-68
2022/01/19 04:44:05;;;;;;;18.15;11.48;;;;;;;;;;5069883;28;20040;-68
2022/01/19 04:54:42;;;;;;;20.70;11.73;;;;;;;;;;5058838;28;20151;-70
2022/01/19 05:05:28;;;;;;;;;;;;;;;;;;5055775;28;20033;-69
2022/01/19 05:07:56;;;;;;;19.45;11.05;;;;;;;;;;5059753;28;20028;-70
2022/01/19 05:15:49;;;;;;;;;;;;;;;;;;5047604;28;20039;-69
2022/01/19 05:18:16;;;;;;;20.45;10.23;;;;;;;;;;5063560;28;19912;-71
2022/01/19 05:20:41;;;;;;;22.27;11.40;;;;;;;;;;5058069;28;20190;-71
2022/01/19 05:23:07;;;;;;;20.85;10.30;;;;;;;;;;5061170;28;20111;-70
2022/01/19 05:25:32;;;;;;;19.30;10.77;;;;;;;;;;5063404;28;20066;-70
2022/01/19 05:27:57;;;;;;;18.73;10.93;;;;;;;;;;5065646;28;20020;-69
2022/01/19 05:30:23;;;;;;;23.35;11.52;;;;;;;;;;5060709;28;20101;-69
2022/01/19 05:32:48;;;;;;;20.52;11.63;;;;;;;;;;5060877;28;20028;-70
2022/01/19 05:35:13;;;;;;;20.83;11.18;;;;;;;;;;5057415;28;20042;-70
2022/01/19 05:37:39;;;;;;;22.95;12.27;;;;;;;;;;5059833;28;20055;-69
2022/01/19 05:40:06;;;;;;;21.23;12.07;;;;;;;;;;5064923;28;20498;-70
2022/01/19 05:42:32;;;;;;;23.30;12.23;;;;;;;;;;5062737;28;20032;-70
2022/01/19 05:44:57;;;;;;;22.30;12.75;;;;;;;;;;5064754;28;20028;-70
2022/01/19 05:47:22;;;;;;;23.88;12.75;;;;;;;;;;5062761;28;20044;-71
2022/01/19 05:49:47;;;;;;;25.48;14.00;;;;;;;;;;5058914;28;20028;-70
2022/01/19 05:52:13;;;;;;;23.92;12.68;;;;;;;;;;5046397;28;20097;-71
2022/01/19 05:54:38;;;;;;;24.38;12.43;;;;;;;;;;5060493;28;20067;-70
2022/01/19 05:57:04;;;;;;;19.85;12.32;;;;;;;;;;5045165;28;20056;-71
2022/01/19 05:59:29;;;;;;;20.67;12.43;;;;;;;;;;5058583;28;20567;-70
2022/01/19 06:01:55;;;;;;;21.05;12.13;;;;;;;;;;5059371;28;20129;-70
2022/01/19 06:04:21;;;;;;;25.63;13.13;;;;;;;;;;5060862;28;20082;-71
2022/01/19 06:06:47;;;;;;;18.92;11.43;;;;;;;;;;5060689;28;20036;-70
2022/01/19 06:11:57;;;;;;;24.13;12.25;;;;;;;;;;5048793;28;20625;-70
2022/01/19 06:14:22;;;;;;;24.52;13.13;;;;;;;;;;5058407;28;20111;-70
2022/01/19 06:16:48;;;;;;;26.40;14.43;;;;;;;;;;5044073;28;20160;-70
2022/01/19 06:19:14;;;;;;;29.05;14.90;;;;;;;;;;5045481;28;20112;-70
2022/01/19 06:21:39;;;;;;;31.98;16.08;;;;;;;;;;5062443;28;20100;-70
2022/01/19 06:24:05;;;;;;;33.05;15.60;;;;;;;;;;5059315;28;20783;-71
2022/01/19 06:26:30;;;;;;;29.20;14.90;;;;;;;;;;5059715;28;20039;-69
2022/01/19 06:28:55;;;;;;;33.13;15.27;;;;;;;;;;5061722;28;20028;-70
2022/01/19 06:31:21;;;;;;;25.67;13.35;;;;;;;;;;5063578;28;20094;-70
2022/01/19 06:33:46;;;;;;;26.35;13.95;;;;;;;;;;5058898;28;20141;-70
2022/01/19 06:36:11;;;;;;;31.40;13.80;;;;;;;;;;5057980;28;20024;-70
2022/01/19 06:38:37;;;;;;;25.70;13.95;;;;;;;;;;5059812;28;20016;-70
2022/01/19 06:41:02;;;;;;;27.25;14.63;;;;;;;;;;5045779;28;20048;-71
2022/01/19 06:43:27;;;;;;;26.45;14.63;;;;;;;;;;5072988;28;20028;-70
2022/01/19 06:45:54;;;;;;;24.48;13.75;;;;;;;;;;5062360;28;20074;-70
2022/01/19 06:48:19;;;;;;;28.00;16.13;;;;;;;;;;5061358;28;20107;-70
2022/01/19 06:50:45;;;;;;;26.27;13.98;;;;;;;;;;5062792;28;20111;-70
2022/01/19 06:53:10;;;;;;;26.90;14.82;;;;;;;;;;5065167;28;20685;-70
2022/01/19 06:55:35;;;;;;;20.50;12.82;;;;;;;;;;5059770;28;20026;-70
2022/01/19 06:58:01;;;;;;;25.33;14.13;;;;;;;;;;5056851;28;20025;-70
2022/01/19 07:00:26;;;;;;;22.73;13.20;;;;;;;;;;5056508;28;20048;-70
2022/01/19 07:02:53;;;;;;;21.08;13.15;;;;;;;;;;5057337;28;20032;-71
2022/01/19 07:05:18;;;;;;;23.27;13.32;;;;;;;;;;5057140;28;20471;-71
2022/01/19 07:07:43;;;;;;;21.73;13.02;;;;;;;;;;5056167;28;20071;-69
2022/01/19 07:10:09;;;;;;;24.73;13.60;;;;;;;;;;5049029;28;20052;-70
2022/01/19 07:12:34;;;;;;;25.50;13.63;;;;;;;;;;5033925;28;20675;-70
2022/01/19 07:15:00;;;;;;;21.35;13.15;;;;;;;;;;5038238;28;20033;-70
2022/01/19 07:17:25;;;;;;;20.58;12.80;;;;;;;;;;5049954;28;20549;-70
2022/01/19 07:19:50;;;;;;;23.10;13.50;;;;;;;;;;5047596;28;20028;-70
2022/01/19 07:22:16;;;;;;;22.23;12.88;;;;;;;;;;5049260;28;20042;-70
2022/01/19 07:24:42;;;;;;;19.08;12.18;;;;;;;;;;5053413;28;20048;-70
2022/01/19 07:27:07;;;;;;;19.90;12.10;;;;;;;;;;5048712;28;20028;-70
2022/01/19 07:29:32;;;;;;;24.70;12.98;;;;;;;;;;5016956;28;20029;-70
2022/01/19 07:31:58;;;;;;;23.05;13.68;;;;;;;;;;5050275;28;20044;-70
2022/01/19 07:34:25;;;;;;;23.05;13.75;;;;;;;;;;5048106;28;20048;-70
2022/01/19 07:36:50;;;;;;;19.60;12.32;;;;;;;;;;5033343;28;20850;-70
2022/01/19 07:39:16;;;;;;;25.30;13.00;;;;;;;;;;5050485;28;20039;-70
2022/01/19 07:41:41;;;;;;;22.05;12.18;;;;;;;;;;5050585;28;20032;-70
2022/01/19 07:44:06;;;;;;;23.00;13.32;;;;;;;;;;5051700;28;20145;-70
2022/01/19 07:46:32;;;;;;;23.63;13.02;;;;;;;;;;5047963;28;20115;-70
2022/01/19 07:48:57;;;;;;;22.48;13.73;;;;;;;;;;5050899;28;20282;-70
2022/01/19 07:51:22;;;;;;;18.60;12.38;;;;;;;;;;5049618;28;20044;-70
2022/01/19 07:53:49;;;;;;;22.92;13.13;;;;;;;;;;5019438;28;20036;-70
2022/01/19 07:56:14;;;;;;;21.05;13.13;;;;;;;;;;5052860;28;20058;-70
2022/01/19 07:58:39;;;;;;;21.77;12.52;;;;;;;;;;5051763;28;20036;-69
2022/01/19 08:01:05;;;;;;;22.02;12.80;;;;;;;;;;5048548;28;20094;-69
2022/01/19 08:03:30;;;;;;;19.63;11.90;;;;;;;;;;5050462;28;20082;-69
2022/01/19 08:05:55;;;;;;;19.55;12.20;;;;;;;;;;5052224;28;20192;-70
2022/01/19 08:08:21;;;;;;;16.30;11.18;;;;;;;;;;5051791;28;20123;-69
2022/01/19 08:10:47;;;;;;;19.38;12.00;;;;;;;;;;5049538;28;20578;-69
2022/01/19 08:13:15;;;;;;;23.00;12.90;;;;;;;;;;5045479;28;20410;-69
2022/01/19 08:15:40;;;;;;;20.25;12.57;;;;;;;;;;5046926;28;20040;-69
2022/01/19 08:18:05;;;;;;;18.40;12.30;;;;;;;;;;5046863;28;20032;-69
2022/01/19 08:20:31;;;;;;;20.52;12.23;;;;;;;;;;5045522;28;21931;-69
2022/01/19 08:22:56;;;;;;;23.80;12.23;;;;;;;;;;5050992;28;20379;-70
2022/01/19 08:25:21;;;;;;;21.38;11.80;;;;;;;;;;5052098;28;20040;-70
2022/01/19 08:27:47;;;;;;;20.58;12.73;;;;;;;;;;5052161;28;20032;-69
2022/01/19 08:30:12;;;;;;;19.80;12.13;;;;;;;;;;5049411;28;21835;-69
2022/01/19 08:32:38;;;;;;;23.17;12.65;;;;;;;;;;5056644;28;20025;-69
2022/01/19 08:35:04;;;;;;;17.98;12.20;;;;;;;;;;5054407;28;20604;-70
2022/01/19 08:37:29;;;;;;;22.42;13.60;;;;;;;;;;5032536;28;20033;-69
2022/01/19 08:39:54;;;;;;;23.10;13.07;;;;;;;;;;5055155;28;20102;-70
2022/01/19 08:42:20;;;;;;;17.67;12.10;;;;;;;;;;5056178;28;20115;-69
2022/01/19 08:44:45;;;;;;;23.17;12.20;;;;;;;;;;5055281;28;20621;-69
2022/01/19 08:47:11;;;;;;;19.17;11.70;;;;;;;;;;5055527;28;20494;-69
2022/01/19 08:49:36;;;;;;;19.85;11.60;;;;;;;;;;5053624;28;20067;-69
2022/01/19 08:52:03;;;;;;;19.50;11.90;;;;;;;;;;5048813;28;20116;-69
2022/01/19 08:54:28;;;;;;;18.35;11.85;;;;;;;;;;5051102;28;20032;-69
2022/01/19 08:56:54;;;;;;;19.58;10.73;;;;;;;;;;5055023;28;20158;-70
2022/01/19 08:59:20;;;;;;;16.05;10.25;;;;;;;;;;5035715;28;20024;-69
2022/01/19 09:01:45;;;;;;;18.27;10.40;;;;;;;;;;5047901;28;20040;-69
2022/01/19 09:04:10;;;;;;;18.38;9.98;;;;;;;;;;5048763;28;20066;-70
2022/01/19 09:06:36;;;;;;;14.73;9.55;;;;;;;;;;5051300;28;20029;-69
2022/01/19 09:09:01;;;;;;;18.50;10.65;;;;;;;;;;5047974;28;20065;-69
2022/01/19 09:11:26;;;;;;;14.50;9.40;;;;;;;;;;5049321;28;20119;-69
2022/01/19 09:13:52;;;;;;;14.63;9.23;;;;;;;;;;5050666;28;20061;-70
2022/01/19 09:16:17;;;;;;;15.40;8.43;;;;;;;;;;5067736;28;20024;-70
2022/01/19 09:18:43;;;;;;;12.40;8.48;;;;;;;;;;5048439;28;20054;-70
2022/01/19 09:21:09;;;;;;;13.00;8.07;;;;;;;;;;5050925;28;20028;-69
2022/01/19 09:23:35;;;;;;;13.30;8.80;;;;;;;;;;5049667;28;20043;-69
2022/01/19 09:26:01;;;;;;;15.80;9.30;;;;;;;;;;5054874;28;20044;-69
2022/01/19 09:28:26;;;;;;;13.68;8.07;;;;;;;;;;5050403;28;20036;-69
2022/01/19 09:30:52;;;;;;;11.82;7.90;;;;;;;;;;5052081;28;20046;-70
2022/01/19 09:33:20;;;;;;;14.30;8.27;;;;;;;;;;5054012;28;20036;-71
2022/01/19 09:38:35;;;;;;;10.88;7.05;;;;;;;;;;5055145;28;20093;-72
2022/01/19 09:41:00;;;;;;;9.20;6.32;;;;;;;;;;5053768;28;20051;-71
2022/01/19 09:43:26;;;;;;;9.63;6.35;;;;;;;;;;5037280;28;20020;-71
2022/01/19 09:45:55;;;;;;;9.73;7.30;;;;;;;;;;5051166;28;20121;-70
2022/01/19 09:48:21;;;;;;;8.65;6.30;;;;;;;;;;5052395;28;20039;-71
2022/01/19 09:50:46;;;;;;;10.73;6.78;;;;;;;;;;5048441;28;20036;-71
2022/01/19 09:53:12;;;;;;;8.07;5.78;;;;;;;;;;5050265;28;20063;-71
2022/01/19 09:55:40;;;;;;;6.93;5.35;;;;;;;;;;5047468;28;20060;-71
2022/01/19 09:58:06;;;;;;;7.45;5.28;;;;;;;;;;5048865;28;20033;-71
2022/01/19 10:00:31;;;;;;;6.53;4.85;;;;;;;;;;5041938;28;20064;-71
2022/01/19 10:03:21;;;;;;;7.70;4.47;;;;;;;;;;5049831;28;20575;-71
2022/01/19 10:05:58;;;;;;;9.55;4.68;;;;;;;;;;5053744;28;20520;-71
2022/01/19 10:08:28;;;;;;;7.57;4.22;;;;;;;;;;5034922;28;20056;-71
2022/01/19 10:11:12;;;;;;;7.03;3.78;;;;;;;;;;5046559;28;20120;-71
2022/01/19 10:19:22;;;;;;;4.93;3.85;;;;;;;;;;5052534;28;20155;-71
2022/01/19 10:21:59;;;;;;;5.43;3.72;;;;;;;;;;5051039;28;20032;-71
2022/01/19 10:24:46;;;;;;;7.90;3.72;;;;;;;;;;5054323;28;20032;-71
2022/01/19 10:27:40;;;;;;;4.20;3.45;;;;;;;;;;5052879;28;20033;-71
2022/01/19 10:30:05;;;;;;;5.13;3.83;;;;;;;;;;5050722;28;20122;-70
2022/01/19 10:32:36;;;;;;;5.65;3.85;;;;;;;;;;5053182;28;20167;-71
2022/01/19 10:35:23;;;;;;;7.32;3.70;;;;;;;;;;5037950;28;20040;-71
2022/01/19 10:38:07;;;;;;;8.80;3.55;;;;;;;;;;5047384;28;20035;-71
2022/01/19 10:40:32;;;;;;;4.10;3.17;;;;;;;;;;5053692;28;20024;-70
2022/01/19 10:42:58;;;;;;;4.18;3.10;;;;;;;;;;5053898;28;20056;-71
2022/01/19 10:45:23;;;;;;;4.60;3.08;;;;;;;;;;5046295;28;21727;-71
2022/01/19 10:47:54;;;;;;;4.28;3.17;;;;;;;;;;5050002;28;20060;-71
2022/01/19 10:50:28;;;;;;;4.13;2.83;;;;;;;;;;5048875;28;20771;-71
2022/01/19 10:52:54;;;;;;;4.75;2.90;;;;;;;;;;5036029;28;20115;-70
2022/01/19 10:55:20;;;;;;;5.88;2.83;;;;;;;;;;5066548;28;20067;-71
2022/01/19 10:57:47;;;;;;;6.80;3.00;;;;;;;;;;5049897;28;20043;-71
2022/01/19 11:00:20;;;;;;;3.15;2.30;;;;;;;;;;5049285;28;20369;-71
2022/01/19 11:02:47;;;;;;;3.80;2.47;;;;;;;;;;5048497;28;20154;-71
2022/01/19 11:05:12;;;;;;;3.72;2.53;;;;;;;;;;5034565;28;20410;-71
2022/01/19 11:07:38;;;;;;;3.17;2.38;;;;;;;;;;5067232;28;20028;-71
2022/01/19 11:10:18;;;;;;;3.40;2.30;;;;;;;;;;5051570;28;20033;-71
2022/01/19 11:12:52;;;;;;;5.07;2.35;;;;;;;;;;5050794;28;20082;-71
2022/01/19 11:15:19;;;;;;;3.30;2.40;;;;;;;;;;5066657;28;20533;-71
2022/01/19 11:17:48;;;;;;;4.35;3.08;;;;;;;;;;5052986;28;20020;-71
2022/01/19 11:20:15;;;;;;;2.30;2.00;;;;;;;;;;5051818;28;20142;-70
2022/01/19 11:22:50;;;;;;;2.95;2.40;;;;;;;;;;5038814;28;20411;-71
2022/01/19 11:25:33;;;;;;;4.97;2.78;;;;;;;;;;5048994;28;20027;-71
2022/01/19 11:27:59;;;;;;;4.20;2.60;;;;;;;;;;5051031;28;20051;-71
2022/01/19 11:30:29;;;;;;;4.70;2.55;;;;;;;;;;5051812;28;20128;-71
2022/01/19 11:33:12;;;;;;;4.38;2.47;;;;;;;;;;5049525;28;20029;-71
2022/01/19 11:35:38;;;;;;;3.42;2.38;;;;;;;;;;5050421;28;20685;-71
2022/01/19 11:38:45;;;;;;;2.85;2.22;;;;;;;;;;5053009;28;20029;-71
2022/01/19 11:41:10;;;;;;;3.63;2.40;;;;;;;;;;5056984;28;20045;-70
2022/01/19 11:43:37;;;;;;;2.53;1.95;;;;;;;;;;5049770;28;20549;-71
2022/01/19 11:46:03;;;;;;;3.75;2.35;;;;;;;;;;5053506;28;20037;-71
2022/01/19 11:48:35;;;;;;;3.25;2.50;;;;;;;;;;5033450;28;20470;-70
2022/01/19 11:51:29;;;;;;;2.25;2.05;;;;;;;;;;5049884;28;20523;-71
2022/01/19 11:54:40;;;;;;;2.95;2.30;;;;;;;;;;5051145;28;20073;-70
2022/01/19 11:57:08;;;;;;;2.58;2.13;;;;;;;;;;4994497;28;20087;-71
2022/01/19 11:59:46;;;;;;;4.53;2.13;;;;;;;;;;5051210;28;20051;-70
2022/01/19 12:02:28;;;;;;;2.70;1.70;;;;;;;;;;5047479;28;20155;-71
2022/01/19 12:04:54;;;;;;;3.47;2.28;;;;;;;;;;5055382;28;20028;-71
2022/01/19 12:07:39;;;;;;;5.78;2.08;;;;;;;;;;5057267;28;20039;-71
2022/01/19 12:10:07;;;;;;;;;;;;;;;;;;5056526;28;20074;-68
2022/01/19 12:12:39;;;;;;;1.90;1.80;;;;;;;;;;5056208;28;19916;-71
2022/01/19 12:15:07;;;;;;;3.25;2.20;;;;;;;;;;5054949;28;20024;-71
2022/01/19 12:17:54;;;;;;;4.57;2.50;;;;;;;;;;5056377;28;20738;-70
2022/01/19 12:20:49;;;;;;;2.15;1.77;;;;;;;;;;5057338;28;20086;-70
2022/01/19 12:23:27;;;;;;;3.05;1.88;;;;;;;;;;5056815;28;20020;-70
2022/01/19 12:25:53;;;;;;;2.92;2.03;;;;;;;;;;5041670;28;20051;-70
2022/01/19 12:28:38;;;;;;;1.98;1.75;;;;;;;;;;5056750;28;20028;-70
2022/01/19 12:31:25;;;;;;;2.78;1.80;;;;;;;;;;5055305;28;20055;-71
2022/01/19 12:34:02;;;;;;;2.60;1.85;;;;;;;;;;5054809;28;22038;-71
2022/01/19 12:36:41;;;;;;;2.47;1.88;;;;;;;;;;5056703;28;20063;-72
2022/01/19 12:39:25;;;;;;;3.20;2.20;;;;;;;;;;5055713;28;20314;-70
2022/01/19 12:41:55;;;;;;;2.15;1.95;;;;;;;;;;5054312;28;20058;-70
2022/01/19 12:44:37;;;;;;;3.90;2.30;;;;;;;;;;5041160;28;20066;-71
2022/01/19 12:47:04;;;;;;;2.45;1.70;;;;;;;;;;5054574;28;20037;-71
2022/01/19 12:49:30;;;;;;;3.95;2.22;;;;;;;;;;5056684;28;20102;-71
2022/01/19 12:51:55;;;;;;;3.63;2.50;;;;;;;;;;5051353;28;20483;-71
2022/01/19 12:54:28;;;;;;;2.88;2.03;;;;;;;;;;5055138;28;20024;-70
2022/01/19 12:56:55;;;;;;;6.05;2.30;;;;;;;;;;5053805;28;20094;-70
2022/01/19 12:59:20;;;;;;;2.90;2.40;;;;;;;;;;5053341;28;20458;-70
2022/01/19 13:01:46;;;;;;;3.70;2.28;;;;;;;;;;5050957;28;20048;-70
2022/01/19 13:04:28;;;;;;;5.18;2.60;;;;;;;;;;5052418;28;20067;-71
2022/01/19 13:06:55;;;;;;;3.30;2.20;;;;;;;;;;5048805;28;20035;-70
2022/01/19 13:09:29;;;;;;;4.03;2.38;;;;;;;;;;5042592;28;20028;-70
2022/01/19 13:11:56;;;;;;;2.97;2.35;;;;;;;;;;5053903;28;20580;-70
2022/01/19 13:14:23;;;;;;;2.70;2.50;;;;;;;;;;5053166;28;20093;-70
2022/01/19 13:16:49;;;;;;;2.28;2.08;;;;;;;;;;5047117;28;20381;-70
2022/01/19 13:19:22;;;;;;;2.92;2.42;;;;;;;;;;5051163;28;20679;-70
2022/01/19 13:21:51;;;;;;;4.97;2.53;;;;;;;;;;5046833;28;20093;-70
2022/01/19 13:24:30;;;;;;;2.47;2.13;;;;;;;;;;5050952;28;20032;-70
2022/01/19 13:26:58;;;;;;;2.95;2.60;;;;;;;;;;5050242;28;20036;-71
2022/01/19 13:29:27;;;;;;;6.22;2.97;;;;;;;;;;5053189;28;20136;-68
2022/01/19 13:32:00;;;;;;;4.18;2.67;;;;;;;;;;5046418;28;20438;-68
2022/01/19 13:34:25;;;;;;;3.38;2.58;;;;;;;;;;5053886;28;20024;-69
2022/01/19 13:36:55;;;;;;;5.05;2.90;;;;;;;;;;5050845;28;20029;-68
2022/01/19 13:39:22;;;;;;;3.83;2.72;;;;;;;;;;5053015;28;20029;-69
2022/01/19 13:41:50;;;;;;;4.88;3.33;;;;;;;;;;5053284;28;20117;-68
2022/01/19 13:44:20;;;;;;;4.72;3.10;;;;;;;;;;5050438;28;20451;-68
2022/01/19 13:46:45;;;;;;;4.30;3.53;;;;;;;;;;5050518;28;20115;-68
2022/01/19 13:49:11;;;;;;;7.22;3.83;;;;;;;;;;5049317;28;20043;-68
2022/01/19 13:51:37;;;;;;;5.03;3.70;;;;;;;;;;5047992;28;20157;-69
2022/01/19 13:54:05;;;;;;;5.25;3.90;;;;;;;;;;5035140;28;20076;-68
2022/01/19 13:56:35;;;;;;;7.60;3.88;;;;;;;;;;5048727;28;20036;-68
2022/01/19 13:59:11;;;;;;;4.18;3.40;;;;;;;;;;5049338;28;20082;-70
2022/01/19 14:01:56;;;;;;;9.27;3.70;;;;;;;;;;5046390;28;20107;-70
2022/01/19 14:04:21;;;;;;;6.25;3.83;;;;;;;;;;5050865;28;20713;-70
2022/01/19 14:06:48;;;;;;;6.43;3.40;;;;;;;;;;5051820;28;20039;-70
2022/01/19 14:09:15;;;;;;;6.32;3.65;;;;;;;;;;5049116;28;20059;-70
2022/01/19 14:11:49;;;;;;;5.07;3.50;;;;;;;;;;5050785;28;20392;-69
2022/01/19 14:14:24;;;;;;;5.60;3.57;;;;;;;;;;5051919;28;20107;-70
2022/01/19 14:16:50;;;;;;;4.68;3.50;;;;;;;;;;5051213;28;20291;-70
2022/01/19 14:19:45;;;;;;;5.15;3.63;;;;;;;;;;5047760;28;20028;-70
2022/01/19 14:22:12;;;;;;;;;;;;;;;;;;5046313;28;20052;-68
2022/01/19 14:24:40;;;;;;;6.28;3.30;;;;;;;;;;5051531;28;19991;-70
2022/01/19 14:27:06;;;;;;;4.32;3.72;;;;;;;;;;5047896;28;20033;-71
2022/01/19 14:29:31;;;;;;;4.30;3.33;;;;;;;;;;5049968;28;20159;-69
2022/01/19 14:31:58;;;;;;;4.72;3.40;;;;;;;;;;5043501;28;21633;-70
2022/01/19 14:34:36;;;;;;;4.65;3.67;;;;;;;;;;5048380;28;20028;-70
2022/01/19 14:37:10;;;;;;;6.18;3.70;;;;;;;;;;5050445;28;20770;-70
2022/01/19 14:39:45;;;;;;;5.82;3.30;;;;;;;;;;5050603;28;20094;-70
2022/01/19 14:42:11;;;;;;;4.35;3.53;;;;;;;;;;5045565;28;20764;-71
2022/01/19 14:44:41;;;;;;;5.13;3.40;;;;;;;;;;5045981;28;20042;-70
2022/01/19 14:47:16;;;;;;;8.85;3.03;;;;;;;;;;5044821;28;20036;-70
2022/01/19 14:49:41;;;;;;;5.03;3.38;;;;;;;;;;5047089;28;20044;-70
2022/01/19 14:52:07;;;;;;;5.80;3.40;;;;;;;;;;5047342;28;20445;-70
2022/01/19 14:54:33;;;;;;;5.18;3.40;;;;;;;;;;5051382;28;20472;-69
2022/01/19 14:56:58;;;;;;;4.13;3.08;;;;;;;;;;5045354;28;20126;-70
2022/01/19 14:59:23;;;;;;;9.05;3.33;;;;;;;;;;5048439;28;20082;-72
2022/01/19 15:01:55;;;;;;;5.53;3.60;;;;;;;;;;5046759;28;20037;-70
2022/01/19 15:04:21;;;;;;;6.40;4.25;;;;;;;;;;5051855;28;20119;-70
2022/01/19 15:06:47;;;;;;;3.92;3.20;;;;;;;;;;5035265;28;20028;-70
2022/01/19 15:09:13;;;;;;;4.85;3.47;;;;;;;;;;5055852;28;20049;-70
2022/01/19 15:11:39;;;;;;;4.35;3.00;;;;;;;;;;5051294;28;20332;-70
2022/01/19 15:14:04;;;;;;;5.05;3.33;;;;;;;;;;5049405;28;21446;-70
2022/01/19 15:16:29;;;;;;;4.25;3.08;;;;;;;;;;5045325;28;20148;-70
2022/01/19 15:18:55;;;;;;;4.15;2.95;;;;;;;;;;5052651;28;20037;-70
2022/01/19 15:21:20;;;;;;;5.30;3.20;;;;;;;;;;5041154;28;20131;-70
2022/01/19 15:23:46;;;;;;;20.42;8.77;;;;;;;;;;5048661;28;20115;-70
2022/01/19 15:26:11;;;;;;;14.23;6.88;;;;;;;;;;5051907;28;20041;-70
2022/01/19 15:28:37;;;;;;;9.52;4.10;;;;;;;;;;5041499;28;20071;-70
2022/01/19 15:31:04;;;;;;;4.53;3.50;;;;;;;;;;5044431;28;20431;-71
2022/01/19 15:33:30;;;;;;;7.78;3.92;;;;;;;;;;5053218;28;20445;-70
2022/01/19 15:35:55;;;;;;;8.43;4.70;;;;;;;;;;5042521;28;20032;-70
2022/01/19 15:38:22;;;;;;;7.13;4.13;;;;;;;;;;5055179;28;20451;-70
2022/01/19 15:40:47;;;;;;;8.80;5.07;;;;;;;;;;5053862;28;20028;-70
2022/01/19 15:43:18;;;;;;;6.63;4.32;;;;;;;;;;5050998;28;20123;-70
2022/01/19 15:45:46;;;;;;;7.60;4.80;;;;;;;;;;5054951;28;20478;-70
2022/01/19 15:48:15;;;;;;;10.18;4.78;;;;;;;;;;5053818;28;20136;-70
2022/01/19 15:50:46;;;;;;;8.07;4.82;;;;;;;;;;5052009;28;20025;-70
2022/01/19 15:53:11;;;;;;;6.30;3.65;;;;;;;;;;5054418;28;20097;-70
2022/01/19 15:55:36;;;;;;;9.90;4.25;;;;;;;;;;5058037;28;20066;-70
2022/01/19 15:58:02;;;;;;;7.60;4.25;;;;;;;;;;5052673;28;20428;-70
2022/01/19 16:00:27;;;;;;;9.25;5.90;;;;;;;;;;5050897;28;20128;-70